sensor_id;sensor_type;location;lat;lon;timestamp;pressure;altitude;pressure_sealevel;temperature
64960;BMP180;51487;52.266;10.542;2023-08-01T00:01:37;99069.00;;;16.50
64960;BMP180;51487;52.266;10.542;2023-08-01T00:04:03;99082.00;;;16.40
64960;BMP180;51487;52.266;10.542;2023-08-01T00:06:29;99064.00;;;16.50
64960;BMP180;51487;52.266;10.542;2023-08-01T00:08:55;99048.00;;;16.60
64960;BMP180;51487;52.266;10.542;2023-08-01T00:11:20;99035.00;;;16.60
64960;BMP180;51487;52.266;10.542;2023-08-01T00:13:46;99017.00;;;16.40
64960;BMP180;51487;52.266;10.542;2023-08-01T00:16:12;99012.00;;;16.50
64960;BMP180;51487;52.266;10.542;2023-08-01T00:18:37;99018.00;;;16.60
64960;BMP180;51487;52.266;10.542;2023-08-01T00:21:03;99024.00;;;16.60
64960;BMP180;51487;52.266;10.542;2023-08-01T00:23:31;99023.00;;;16.70
64960;BMP180;51487;52.266;10.542;2023-08-01T00:25:57;99015.00;;;16.70
64960;BMP180;51487;52.266;10.542;2023-08-01T00:28:22;99015.00;;;16.60
64960;BMP180;51487;52.266;10.542;2023-08-01T00:30:48;99001.00;;;16.60
64960;BMP180;51487;52.266;10.542;2023-08-01T00:33:13;98991.00;;;16.60
64960;BMP180;51487;52.266;10.542;2023-08-01T00:35:40;98996.00;;;16.60
64960;BMP180;51487;52.266;10.542;2023-08-01T00:38:06;98989.00;;;16.60
64960;BMP180;51487;52.266;10.542;2023-08-01T00:40:34;98991.00;;;16.60
64960;BMP180;51487;52.266;10.542;2023-08-01T00:42:59;98977.00;;;16.50
64960;BMP180;51487;52.266;10.542;2023-08-01T00:45:30;98982.00;;;16.60
64960;BMP180;51487;52.266;10.542;2023-08-01T00:47:56;98977.00;;;16.50
64960;BMP180;51487;52.266;10.542;2023-08-01T00:50:22;98966.00;;;16.50
64960;BMP180;51487;52.266;10.542;2023-08-01T00:52:52;98964.00;;;16.50
64960;BMP180;51487;52.266;10.542;2023-08-01T00:55:18;98957.00;;;16.50
64960;BMP180;51487;52.266;10.542;2023-08-01T00:57:44;98962.00;;;16.40
64960;BMP180;51487;52.266;10.542;2023-08-01T01:00:11;98946.00;;;16.50
64960;BMP180;51487;52.266;10.542;2023-08-01T01:02:37;98945.00;;;16.40
64960;BMP180;51487;52.266;10.542;2023-08-01T01:05:03;98940.00;;;16.50
64960;BMP180;51487;52.266;10.542;2023-08-01T01:07:31;98945.00;;;16.50
64960;BMP180;51487;52.266;10.542;2023-08-01T01:10:00;98944.00;;;16.50
64960;BMP180;51487;52.266;10.542;2023-08-01T01:12:25;98947.00;;;16.40
64960;BMP180;51487;52.266;10.542;2023-08-01T01:14:52;98946.00;;;16.40
64960;BMP180;51487;52.266;10.542;2023-08-01T01:17:18;98938.00;;;16.30
64960;BMP180;51487;52.266;10.542;2023-08-01T01:19:43;98933.00;;;16.40
64960;BMP180;51487;52.266;10.542;2023-08-01T01:22:10;98938.00;;;16.40
64960;BMP180;51487;52.266;10.542;2023-08-01T01:24:37;98930.00;;;16.50
64960;BMP180;51487;52.266;10.542;2023-08-01T01:27:05;98917.00;;;16.40
64960;BMP180;51487;52.266;10.542;2023-08-01T01:29:33;98923.00;;;16.40
64960;BMP180;51487;52.266;10.542;2023-08-01T01:32:00;98914.00;;;16.40
64960;BMP180;51487;52.266;10.542;2023-08-01T01:34:28;98908.00;;;16.40
64960;BMP180;51487;52.266;10.542;2023-08-01T01:36:53;98904.00;;;16.40
64960;BMP180;51487;52.266;10.542;2023-08-01T01:39:19;98905.00;;;16.50
64960;BMP180;51487;52.266;10.542;2023-08-01T01:41:46;98901.00;;;16.40
64960;BMP180;51487;52.266;10.542;2023-08-01T01:44:13;98897.00;;;16.40
64960;BMP180;51487;52.266;10.542;2023-08-01T01:46:39;98908.00;;;16.40
64960;BMP180;51487;52.266;10.542;2023-08-01T01:49:04;98903.00;;;16.40
64960;BMP180;51487;52.266;10.542;2023-08-01T01:51:30;98899.00;;;16.40
64960;BMP180;51487;52.266;10.542;2023-08-01T01:53:56;98900.00;;;16.50
64960;BMP180;51487;52.266;10.542;2023-08-01T01:56:22;98901.00;;;16.50
64960;BMP180;51487;52.266;10.542;2023-08-01T01:58:48;98901.00;;;16.40
64960;BMP180;51487;52.266;10.542;2023-08-01T02:01:13;98900.00;;;16.50
64960;BMP180;51487;52.266;10.542;2023-08-01T02:03:39;98901.00;;;16.50
64960;BMP180;51487;52.266;10.542;2023-08-01T02:06:05;98881.00;;;16.50
64960;BMP180;51487;52.266;10.542;2023-08-01T02:08:30;98885.00;;;16.50
64960;BMP180;51487;52.266;10.542;2023-08-01T02:10:56;98882.00;;;16.50
64960;BMP180;51487;52.266;10.542;2023-08-01T02:13:28;98873.00;;;16.60
64960;BMP180;51487;52.266;10.542;2023-08-01T02:15:55;98865.00;;;16.50
64960;BMP180;51487;52.266;10.542;2023-08-01T02:18:20;98868.00;;;16.50
64960;BMP180;51487;52.266;10.542;2023-08-01T02:20:46;98861.00;;;16.60
64960;BMP180;51487;52.266;10.542;2023-08-01T02:23:12;98861.00;;;16.50
64960;BMP180;51487;52.266;10.542;2023-08-01T02:25:41;98854.00;;;16.50
64960;BMP180;51487;52.266;10.542;2023-08-01T02:28:07;98863.00;;;16.60
64960;BMP180;51487;52.266;10.542;2023-08-01T02:30:34;98851.00;;;16.60
64960;BMP180;51487;52.266;10.542;2023-08-01T02:33:00;98865.00;;;16.60
64960;BMP180;51487;52.266;10.542;2023-08-01T02:35:26;98854.00;;;16.60
64960;BMP180;51487;52.266;10.542;2023-08-01T02:37:53;98846.00;;;16.60
64960;BMP180;51487;52.266;10.542;2023-08-01T02:40:19;98835.00;;;16.50
64960;BMP180;51487;52.266;10.542;2023-08-01T02:42:46;98840.00;;;16.50
64960;BMP180;51487;52.266;10.542;2023-08-01T02:45:12;98836.00;;;16.50
64960;BMP180;51487;52.266;10.542;2023-08-01T02:47:38;98827.00;;;16.40
64960;BMP180;51487;52.266;10.542;2023-08-01T02:50:05;98823.00;;;16.40
64960;BMP180;51487;52.266;10.542;2023-08-01T02:52:31;98805.00;;;16.40
64960;BMP180;51487;52.266;10.542;2023-08-01T02:54:57;98815.00;;;16.40
64960;BMP180;51487;52.266;10.542;2023-08-01T02:57:23;98801.00;;;16.40
64960;BMP180;51487;52.266;10.542;2023-08-01T02:59:49;98800.00;;;16.40
64960;BMP180;51487;52.266;10.542;2023-08-01T03:02:15;98788.00;;;16.40
64960;BMP180;51487;52.266;10.542;2023-08-01T03:04:43;98784.00;;;16.40
64960;BMP180;51487;52.266;10.542;2023-08-01T03:07:08;98784.00;;;16.40
64960;BMP180;51487;52.266;10.542;2023-08-01T03:09:34;98773.00;;;16.40
64960;BMP180;51487;52.266;10.542;2023-08-01T03:12:00;98763.00;;;16.40
64960;BMP180;51487;52.266;10.542;2023-08-01T03:14:25;98766.00;;;16.40
64960;BMP180;51487;52.266;10.542;2023-08-01T03:16:51;98758.00;;;16.40
64960;BMP180;51487;52.266;10.542;2023-08-01T03:19:16;98755.00;;;16.40
64960;BMP180;51487;52.266;10.542;2023-08-01T03:21:42;98762.00;;;16.40
64960;BMP180;51487;52.266;10.542;2023-08-01T03:24:07;98765.00;;;16.30
64960;BMP180;51487;52.266;10.542;2023-08-01T03:26:35;98767.00;;;16.30
64960;BMP180;51487;52.266;10.542;2023-08-01T03:29:02;98763.00;;;16.30
64960;BMP180;51487;52.266;10.542;2023-08-01T03:31:27;98758.00;;;16.30
64960;BMP180;51487;52.266;10.542;2023-08-01T03:33:53;98750.00;;;16.30
64960;BMP180;51487;52.266;10.542;2023-08-01T03:36:20;98749.00;;;16.30
64960;BMP180;51487;52.266;10.542;2023-08-01T03:38:45;98743.00;;;16.30
64960;BMP180;51487;52.266;10.542;2023-08-01T03:41:11;98745.00;;;16.40
64960;BMP180;51487;52.266;10.542;2023-08-01T03:43:38;98733.00;;;16.40
64960;BMP180;51487;52.266;10.542;2023-08-01T03:46:04;98740.00;;;16.40
64960;BMP180;51487;52.266;10.542;2023-08-01T03:48:30;98753.00;;;16.40
64960;BMP180;51487;52.266;10.542;2023-08-01T03:50:57;98737.00;;;16.40
64960;BMP180;51487;52.266;10.542;2023-08-01T03:53:23;98738.00;;;16.40
64960;BMP180;51487;52.266;10.542;2023-08-01T03:55:49;98740.00;;;16.40
64960;BMP180;51487;52.266;10.542;2023-08-01T03:58:14;98740.00;;;16.40
64960;BMP180;51487;52.266;10.542;2023-08-01T04:00:42;98742.00;;;16.40
64960;BMP180;51487;52.266;10.542;2023-08-01T04:03:08;98730.00;;;16.40
64960;BMP180;51487;52.266;10.542;2023-08-01T04:05:34;98729.00;;;16.50
64960;BMP180;51487;52.266;10.542;2023-08-01T04:07:59;98721.00;;;16.50
64960;BMP180;51487;52.266;10.542;2023-08-01T04:10:25;98740.00;;;16.50
64960;BMP180;51487;52.266;10.542;2023-08-01T04:12:50;98744.00;;;16.50
64960;BMP180;51487;52.266;10.542;2023-08-01T04:15:16;98741.00;;;16.50
64960;BMP180;51487;52.266;10.542;2023-08-01T04:17:42;98740.00;;;16.50
64960;BMP180;51487;52.266;10.542;2023-08-01T04:20:08;98732.00;;;16.50
64960;BMP180;51487;52.266;10.542;2023-08-01T04:22:34;98721.00;;;16.40
64960;BMP180;51487;52.266;10.542;2023-08-01T04:25:01;98723.00;;;16.50
64960;BMP180;51487;52.266;10.542;2023-08-01T04:27:27;98729.00;;;16.50
64960;BMP180;51487;52.266;10.542;2023-08-01T04:29:53;98730.00;;;16.50
64960;BMP180;51487;52.266;10.542;2023-08-01T04:32:19;98735.00;;;16.40
64960;BMP180;51487;52.266;10.542;2023-08-01T04:34:45;98733.00;;;16.50
64960;BMP180;51487;52.266;10.542;2023-08-01T04:37:10;98730.00;;;16.40
64960;BMP180;51487;52.266;10.542;2023-08-01T04:39:36;98732.00;;;16.40
64960;BMP180;51487;52.266;10.542;2023-08-01T04:42:02;98731.00;;;16.40
64960;BMP180;51487;52.266;10.542;2023-08-01T04:44:28;98718.00;;;16.50
64960;BMP180;51487;52.266;10.542;2023-08-01T04:46:54;98723.00;;;16.40
64960;BMP180;51487;52.266;10.542;2023-08-01T04:49:20;98716.00;;;16.50
64960;BMP180;51487;52.266;10.542;2023-08-01T04:51:47;98715.00;;;16.50
64960;BMP180;51487;52.266;10.542;2023-08-01T04:54:14;98711.00;;;16.50
64960;BMP180;51487;52.266;10.542;2023-08-01T04:56:39;98714.00;;;16.40
64960;BMP180;51487;52.266;10.542;2023-08-01T04:59:05;98711.00;;;16.40
64960;BMP180;51487;52.266;10.542;2023-08-01T05:01:30;98712.00;;;16.40
64960;BMP180;51487;52.266;10.542;2023-08-01T05:03:56;98709.00;;;16.50
64960;BMP180;51487;52.266;10.542;2023-08-01T05:06:22;98715.00;;;16.50
64960;BMP180;51487;52.266;10.542;2023-08-01T05:08:49;98718.00;;;16.50
64960;BMP180;51487;52.266;10.542;2023-08-01T05:11:18;98721.00;;;16.60
64960;BMP180;51487;52.266;10.542;2023-08-01T05:13:44;98720.00;;;16.60
64960;BMP180;51487;52.266;10.542;2023-08-01T05:16:10;98718.00;;;16.60
64960;BMP180;51487;52.266;10.542;2023-08-01T05:18:35;98728.00;;;16.50
64960;BMP180;51487;52.266;10.542;2023-08-01T05:21:01;98730.00;;;16.60
64960;BMP180;51487;52.266;10.542;2023-08-01T05:23:26;98723.00;;;16.50
64960;BMP180;51487;52.266;10.542;2023-08-01T05:25:52;98717.00;;;16.50
64960;BMP180;51487;52.266;10.542;2023-08-01T05:28:19;98718.00;;;16.40
64960;BMP180;51487;52.266;10.542;2023-08-01T05:30:45;98718.00;;;16.40
64960;BMP180;51487;52.266;10.542;2023-08-01T05:33:10;98718.00;;;16.40
64960;BMP180;51487;52.266;10.542;2023-08-01T05:35:36;98719.00;;;16.30
64960;BMP180;51487;52.266;10.542;2023-08-01T05:38:02;98715.00;;;16.30
64960;BMP180;51487;52.266;10.542;2023-08-01T05:40:27;98711.00;;;16.40
64960;BMP180;51487;52.266;10.542;2023-08-01T05:42:53;98723.00;;;16.30
64960;BMP180;51487;52.266;10.542;2023-08-01T05:45:19;98721.00;;;16.40
64960;BMP180;51487;52.266;10.542;2023-08-01T05:47:44;98728.00;;;16.40
64960;BMP180;51487;52.266;10.542;2023-08-01T05:50:11;98732.00;;;16.50
64960;BMP180;51487;52.266;10.542;2023-08-01T05:52:37;98728.00;;;16.40
64960;BMP180;51487;52.266;10.542;2023-08-01T05:55:03;98739.00;;;16.50
64960;BMP180;51487;52.266;10.542;2023-08-01T05:57:29;98738.00;;;16.40
64960;BMP180;51487;52.266;10.542;2023-08-01T05:59:55;98746.00;;;16.30
64960;BMP180;51487;52.266;10.542;2023-08-01T06:02:21;98740.00;;;16.30
64960;BMP180;51487;52.266;10.542;2023-08-01T06:04:46;98741.00;;;16.30
64960;BMP180;51487;52.266;10.542;2023-08-01T06:07:12;98751.00;;;16.30
64960;BMP180;51487;52.266;10.542;2023-08-01T06:09:37;98752.00;;;16.30
64960;BMP180;51487;52.266;10.542;2023-08-01T06:12:03;98749.00;;;16.40
64960;BMP180;51487;52.266;10.542;2023-08-01T06:14:29;98750.00;;;16.30
64960;BMP180;51487;52.266;10.542;2023-08-01T06:16:55;98755.00;;;16.40
64960;BMP180;51487;52.266;10.542;2023-08-01T06:19:20;98755.00;;;16.40
64960;BMP180;51487;52.266;10.542;2023-08-01T06:21:46;98755.00;;;16.40
64960;BMP180;51487;52.266;10.542;2023-08-01T06:24:12;98762.00;;;16.40
64960;BMP180;51487;52.266;10.542;2023-08-01T06:26:37;98755.00;;;16.40
64960;BMP180;51487;52.266;10.542;2023-08-01T06:29:03;98747.00;;;16.40
64960;BMP180;51487;52.266;10.542;2023-08-01T06:31:28;98747.00;;;16.40
64960;BMP180;51487;52.266;10.542;2023-08-01T06:33:54;98751.00;;;16.30
64960;BMP180;51487;52.266;10.542;2023-08-01T06:36:20;98744.00;;;16.30
64960;BMP180;51487;52.266;10.542;2023-08-01T06:38:45;98742.00;;;16.10
64960;BMP180;51487;52.266;10.542;2023-08-01T06:41:11;98750.00;;;16.20
64960;BMP180;51487;52.266;10.542;2023-08-01T06:43:37;98758.00;;;16.20
64960;BMP180;51487;52.266;10.542;2023-08-01T06:46:04;98767.00;;;16.20
64960;BMP180;51487;52.266;10.542;2023-08-01T06:48:31;98762.00;;;16.20
64960;BMP180;51487;52.266;10.542;2023-08-01T06:51:00;98754.00;;;16.20
64960;BMP180;51487;52.266;10.542;2023-08-01T06:53:27;98745.00;;;16.20
64960;BMP180;51487;52.266;10.542;2023-08-01T06:55:53;98740.00;;;16.30
64960;BMP180;51487;52.266;10.542;2023-08-01T06:58:18;98740.00;;;16.30
64960;BMP180;51487;52.266;10.542;2023-08-01T07:00:44;98748.00;;;16.30
64960;BMP180;51487;52.266;10.542;2023-08-01T07:03:09;98756.00;;;16.40
64960;BMP180;51487;52.266;10.542;2023-08-01T07:05:35;98759.00;;;16.50
64960;BMP180;51487;52.266;10.542;2023-08-01T07:08:02;98759.00;;;16.40
64960;BMP180;51487;52.266;10.542;2023-08-01T07:10:28;98764.00;;;16.50
64960;BMP180;51487;52.266;10.542;2023-08-01T07:12:53;98767.00;;;16.50
64960;BMP180;51487;52.266;10.542;2023-08-01T07:15:19;98764.00;;;16.50
64960;BMP180;51487;52.266;10.542;2023-08-01T07:17:44;98773.00;;;16.50
64960;BMP180;51487;52.266;10.542;2023-08-01T07:20:10;98779.00;;;16.50
64960;BMP180;51487;52.266;10.542;2023-08-01T07:22:36;98776.00;;;16.50
64960;BMP180;51487;52.266;10.542;2023-08-01T07:25:02;98783.00;;;16.50
64960;BMP180;51487;52.266;10.542;2023-08-01T07:27:27;98791.00;;;16.60
64960;BMP180;51487;52.266;10.542;2023-08-01T07:29:53;98793.00;;;16.40
64960;BMP180;51487;52.266;10.542;2023-08-01T07:32:19;98792.00;;;16.50
64960;BMP180;51487;52.266;10.542;2023-08-01T07:34:45;98786.00;;;16.40
64960;BMP180;51487;52.266;10.542;2023-08-01T07:37:10;98801.00;;;16.40
64960;BMP180;51487;52.266;10.542;2023-08-01T07:39:36;98794.00;;;16.40
64960;BMP180;51487;52.266;10.542;2023-08-01T07:42:02;98785.00;;;16.40
64960;BMP180;51487;52.266;10.542;2023-08-01T07:44:28;98793.00;;;16.30
64960;BMP180;51487;52.266;10.542;2023-08-01T07:46:54;98808.00;;;16.30
64960;BMP180;51487;52.266;10.542;2023-08-01T07:49:19;98806.00;;;16.30
64960;BMP180;51487;52.266;10.542;2023-08-01T07:51:45;98812.00;;;16.30
64960;BMP180;51487;52.266;10.542;2023-08-01T07:54:11;98801.00;;;16.30
64960;BMP180;51487;52.266;10.542;2023-08-01T07:56:36;98809.00;;;16.30
64960;BMP180;51487;52.266;10.542;2023-08-01T07:59:02;98804.00;;;16.30
64960;BMP180;51487;52.266;10.542;2023-08-01T08:01:28;98809.00;;;16.50
64960;BMP180;51487;52.266;10.542;2023-08-01T08:03:53;98810.00;;;16.40
64960;BMP180;51487;52.266;10.542;2023-08-01T08:06:19;98817.00;;;16.40
64960;BMP180;51487;52.266;10.542;2023-08-01T08:08:46;98811.00;;;16.50
64960;BMP180;51487;52.266;10.542;2023-08-01T08:11:12;98812.00;;;16.50
64960;BMP180;51487;52.266;10.542;2023-08-01T08:13:37;98808.00;;;16.70
64960;BMP180;51487;52.266;10.542;2023-08-01T08:16:03;98805.00;;;16.80
64960;BMP180;51487;52.266;10.542;2023-08-01T08:18:30;98817.00;;;16.70
64960;BMP180;51487;52.266;10.542;2023-08-01T08:20:55;98815.00;;;16.70
64960;BMP180;51487;52.266;10.542;2023-08-01T08:23:21;98807.00;;;16.60
64960;BMP180;51487;52.266;10.542;2023-08-01T08:25:47;98801.00;;;16.60
64960;BMP180;51487;52.266;10.542;2023-08-01T08:28:13;98806.00;;;16.80
64960;BMP180;51487;52.266;10.542;2023-08-01T08:30:39;98806.00;;;16.80
64960;BMP180;51487;52.266;10.542;2023-08-01T08:33:05;98817.00;;;16.80
64960;BMP180;51487;52.266;10.542;2023-08-01T08:35:35;98818.00;;;16.90
64960;BMP180;51487;52.266;10.542;2023-08-01T08:38:02;98815.00;;;16.90
64960;BMP180;51487;52.266;10.542;2023-08-01T08:40:34;98826.00;;;17.00
64960;BMP180;51487;52.266;10.542;2023-08-01T08:43:06;98817.00;;;17.00
64960;BMP180;51487;52.266;10.542;2023-08-01T08:45:34;98816.00;;;17.00
64960;BMP180;51487;52.266;10.542;2023-08-01T08:48:02;98826.00;;;17.20
64960;BMP180;51487;52.266;10.542;2023-08-01T08:50:37;98826.00;;;17.30
64960;BMP180;51487;52.266;10.542;2023-08-01T08:53:04;98813.00;;;17.30
64960;BMP180;51487;52.266;10.542;2023-08-01T08:55:37;98817.00;;;17.50
64960;BMP180;51487;52.266;10.542;2023-08-01T08:58:03;98822.00;;;17.50
64960;BMP180;51487;52.266;10.542;2023-08-01T09:00:30;98826.00;;;17.60
64960;BMP180;51487;52.266;10.542;2023-08-01T09:02:55;98819.00;;;17.60
64960;BMP180;51487;52.266;10.542;2023-08-01T09:05:26;98817.00;;;17.80
64960;BMP180;51487;52.266;10.542;2023-08-01T09:07:56;98826.00;;;17.90
64960;BMP180;51487;52.266;10.542;2023-08-01T09:10:24;98830.00;;;17.80
64960;BMP180;51487;52.266;10.542;2023-08-01T09:12:50;98832.00;;;17.60
64960;BMP180;51487;52.266;10.542;2023-08-01T09:15:17;98820.00;;;17.50
64960;BMP180;51487;52.266;10.542;2023-08-01T09:17:52;98821.00;;;17.70
64960;BMP180;51487;52.266;10.542;2023-08-01T09:20:21;98806.00;;;17.80
64960;BMP180;51487;52.266;10.542;2023-08-01T09:22:47;98802.00;;;17.90
64960;BMP180;51487;52.266;10.542;2023-08-01T09:25:13;98799.00;;;17.80
64960;BMP180;51487;52.266;10.542;2023-08-01T09:27:39;98803.00;;;17.80
64960;BMP180;51487;52.266;10.542;2023-08-01T09:30:12;98805.00;;;18.10
64960;BMP180;51487;52.266;10.542;2023-08-01T09:32:54;98799.00;;;18.40
64960;BMP180;51487;52.266;10.542;2023-08-01T09:35:21;98797.00;;;18.50
64960;BMP180;51487;52.266;10.542;2023-08-01T09:37:48;98808.00;;;18.60
64960;BMP180;51487;52.266;10.542;2023-08-01T09:40:14;98805.00;;;18.60
64960;BMP180;51487;52.266;10.542;2023-08-01T09:42:41;98804.00;;;18.50
64960;BMP180;51487;52.266;10.542;2023-08-01T09:45:15;98807.00;;;18.70
64960;BMP180;51487;52.266;10.542;2023-08-01T09:47:43;98826.00;;;18.40
64960;BMP180;51487;52.266;10.542;2023-08-01T09:50:10;98810.00;;;18.20
64960;BMP180;51487;52.266;10.542;2023-08-01T09:52:38;98815.00;;;18.20
64960;BMP180;51487;52.266;10.542;2023-08-01T09:55:05;98805.00;;;18.40
64960;BMP180;51487;52.266;10.542;2023-08-01T09:57:31;98800.00;;;18.50
64960;BMP180;51487;52.266;10.542;2023-08-01T09:59:57;98798.00;;;18.50
64960;BMP180;51487;52.266;10.542;2023-08-01T10:02:29;98808.00;;;18.70
64960;BMP180;51487;52.266;10.542;2023-08-01T10:05:00;98808.00;;;18.70
64960;BMP180;51487;52.266;10.542;2023-08-01T10:07:29;98795.00;;;19.00
64960;BMP180;51487;52.266;10.542;2023-08-01T10:09:58;98798.00;;;19.10
64960;BMP180;51487;52.266;10.542;2023-08-01T10:12:26;98803.00;;;19.20
64960;BMP180;51487;52.266;10.542;2023-08-01T10:14:53;98809.00;;;19.50
64960;BMP180;51487;52.266;10.542;2023-08-01T10:17:21;98801.00;;;19.40
64960;BMP180;51487;52.266;10.542;2023-08-01T10:19:49;98813.00;;;19.30
64960;BMP180;51487;52.266;10.542;2023-08-01T10:22:17;98808.00;;;19.30
64960;BMP180;51487;52.266;10.542;2023-08-01T10:24:45;98814.00;;;19.40
64960;BMP180;51487;52.266;10.542;2023-08-01T10:27:19;98821.00;;;19.30
64960;BMP180;51487;52.266;10.542;2023-08-01T10:29:56;98814.00;;;19.20
64960;BMP180;51487;52.266;10.542;2023-08-01T10:32:36;98814.00;;;19.30
64960;BMP180;51487;52.266;10.542;2023-08-01T10:35:03;98826.00;;;19.00
64960;BMP180;51487;52.266;10.542;2023-08-01T10:37:43;98826.00;;;19.10
64960;BMP180;51487;52.266;10.542;2023-08-01T10:40:14;98835.00;;;19.00
64960;BMP180;51487;52.266;10.542;2023-08-01T10:42:41;98820.00;;;19.00
64960;BMP180;51487;52.266;10.542;2023-08-01T10:45:20;98831.00;;;19.20
64960;BMP180;51487;52.266;10.542;2023-08-01T10:47:48;98838.00;;;19.20
64960;BMP180;51487;52.266;10.542;2023-08-01T10:50:17;98837.00;;;19.30
64960;BMP180;51487;52.266;10.542;2023-08-01T10:52:46;98835.00;;;19.30
64960;BMP180;51487;52.266;10.542;2023-08-01T10:55:12;98831.00;;;19.40
64960;BMP180;51487;52.266;10.542;2023-08-01T10:57:50;98829.00;;;19.40
64960;BMP180;51487;52.266;10.542;2023-08-01T11:00:16;98836.00;;;19.40
64960;BMP180;51487;52.266;10.542;2023-08-01T11:02:50;98832.00;;;19.50
64960;BMP180;51487;52.266;10.542;2023-08-01T11:05:20;98830.00;;;19.70
64960;BMP180;51487;52.266;10.542;2023-08-01T11:08:15;98836.00;;;19.80
64960;BMP180;51487;52.266;10.542;2023-08-01T11:10:40;98820.00;;;19.80
64960;BMP180;51487;52.266;10.542;2023-08-01T11:13:10;98819.00;;;19.90
64960;BMP180;51487;52.266;10.542;2023-08-01T11:15:37;98821.00;;;20.10
64960;BMP180;51487;52.266;10.542;2023-08-01T11:18:03;98827.00;;;20.20
64960;BMP180;51487;52.266;10.542;2023-08-01T11:20:29;98830.00;;;20.20
64960;BMP180;51487;52.266;10.542;2023-08-01T11:23:00;98824.00;;;20.20
64960;BMP180;51487;52.266;10.542;2023-08-01T11:28:09;98827.00;;;20.30
64960;BMP180;51487;52.266;10.542;2023-08-01T11:30:36;98834.00;;;20.40
64960;BMP180;51487;52.266;10.542;2023-08-01T11:33:02;98829.00;;;20.40
64960;BMP180;51487;52.266;10.542;2023-08-01T11:35:40;98826.00;;;20.40
64960;BMP180;51487;52.266;10.542;2023-08-01T11:38:09;98826.00;;;20.50
64960;BMP180;51487;52.266;10.542;2023-08-01T11:40:39;98837.00;;;20.50
64960;BMP180;51487;52.266;10.542;2023-08-01T11:43:05;98829.00;;;20.60
64960;BMP180;51487;52.266;10.542;2023-08-01T11:45:35;98822.00;;;20.80
64960;BMP180;51487;52.266;10.542;2023-08-01T11:48:04;98840.00;;;20.80
64960;BMP180;51487;52.266;10.542;2023-08-01T11:50:31;98826.00;;;20.80
64960;BMP180;51487;52.266;10.542;2023-08-01T11:52:58;98831.00;;;21.00
64960;BMP180;51487;52.266;10.542;2023-08-01T11:55:34;98837.00;;;20.90
64960;BMP180;51487;52.266;10.542;2023-08-01T11:58:03;98837.00;;;20.90
64960;BMP180;51487;52.266;10.542;2023-08-01T12:00:32;98841.00;;;20.80
64960;BMP180;51487;52.266;10.542;2023-08-01T12:03:07;98850.00;;;20.80
64960;BMP180;51487;52.266;10.542;2023-08-01T12:05:41;98848.00;;;20.70
64960;BMP180;51487;52.266;10.542;2023-08-01T12:08:13;98842.00;;;20.80
64960;BMP180;51487;52.266;10.542;2023-08-01T12:10:44;98846.00;;;20.90
64960;BMP180;51487;52.266;10.542;2023-08-01T12:13:24;98849.00;;;20.90
64960;BMP180;51487;52.266;10.542;2023-08-01T12:15:55;98854.00;;;20.80
64960;BMP180;51487;52.266;10.542;2023-08-01T12:18:25;98865.00;;;21.00
64960;BMP180;51487;52.266;10.542;2023-08-01T12:20:53;98878.00;;;21.00
64960;BMP180;51487;52.266;10.542;2023-08-01T12:23:19;98869.00;;;20.90
64960;BMP180;51487;52.266;10.542;2023-08-01T12:25:47;98871.00;;;20.80
64960;BMP180;51487;52.266;10.542;2023-08-01T12:28:15;98863.00;;;20.90
64960;BMP180;51487;52.266;10.542;2023-08-01T12:30:41;98863.00;;;21.00
64960;BMP180;51487;52.266;10.542;2023-08-01T12:33:08;98887.00;;;20.90
64960;BMP180;51487;52.266;10.542;2023-08-01T12:35:43;98890.00;;;20.60
64960;BMP180;51487;52.266;10.542;2023-08-01T12:38:14;98889.00;;;20.60
64960;BMP180;51487;52.266;10.542;2023-08-01T12:40:50;98903.00;;;20.50
64960;BMP180;51487;52.266;10.542;2023-08-01T12:43:15;98883.00;;;20.40
64960;BMP180;51487;52.266;10.542;2023-08-01T12:45:42;98885.00;;;20.60
64960;BMP180;51487;52.266;10.542;2023-08-01T12:48:08;98889.00;;;20.50
64960;BMP180;51487;52.266;10.542;2023-08-01T12:50:34;98889.00;;;20.50
64960;BMP180;51487;52.266;10.542;2023-08-01T12:53:00;98881.00;;;20.70
64960;BMP180;51487;52.266;10.542;2023-08-01T12:55:25;98886.00;;;20.70
64960;BMP180;51487;52.266;10.542;2023-08-01T12:57:51;98899.00;;;20.80
64960;BMP180;51487;52.266;10.542;2023-08-01T13:00:17;98901.00;;;20.60
64960;BMP180;51487;52.266;10.542;2023-08-01T13:02:43;98904.00;;;20.50
64960;BMP180;51487;52.266;10.542;2023-08-01T13:05:09;98922.00;;;20.60
64960;BMP180;51487;52.266;10.542;2023-08-01T13:07:35;98912.00;;;20.60
64960;BMP180;51487;52.266;10.542;2023-08-01T13:10:04;98926.00;;;20.40
64960;BMP180;51487;52.266;10.542;2023-08-01T13:12:30;98926.00;;;20.30
64960;BMP180;51487;52.266;10.542;2023-08-01T13:14:56;98926.00;;;20.30
64960;BMP180;51487;52.266;10.542;2023-08-01T13:17:21;98926.00;;;20.40
64960;BMP180;51487;52.266;10.542;2023-08-01T13:19:47;98941.00;;;20.20
64960;BMP180;51487;52.266;10.542;2023-08-01T13:22:13;98928.00;;;20.10
64960;BMP180;51487;52.266;10.542;2023-08-01T13:24:38;98932.00;;;20.10
64960;BMP180;51487;52.266;10.542;2023-08-01T13:27:04;98941.00;;;20.20
64960;BMP180;51487;52.266;10.542;2023-08-01T13:29:30;98941.00;;;20.00
64960;BMP180;51487;52.266;10.542;2023-08-01T13:31:56;98943.00;;;20.10
64960;BMP180;51487;52.266;10.542;2023-08-01T13:34:22;98942.00;;;20.00
64960;BMP180;51487;52.266;10.542;2023-08-01T13:36:50;98920.00;;;20.10
64960;BMP180;51487;52.266;10.542;2023-08-01T13:39:19;98932.00;;;20.10
64960;BMP180;51487;52.266;10.542;2023-08-01T13:41:45;98930.00;;;20.30
64960;BMP180;51487;52.266;10.542;2023-08-01T13:44:11;98918.00;;;20.40
64960;BMP180;51487;52.266;10.542;2023-08-01T13:46:39;98921.00;;;20.60
64960;BMP180;51487;52.266;10.542;2023-08-01T13:49:05;98926.00;;;20.50
64960;BMP180;51487;52.266;10.542;2023-08-01T13:51:34;98949.00;;;20.60
64960;BMP180;51487;52.266;10.542;2023-08-01T13:53:59;98944.00;;;20.20
64960;BMP180;51487;52.266;10.542;2023-08-01T13:56:26;98949.00;;;20.00
64960;BMP180;51487;52.266;10.542;2023-08-01T13:58:52;98959.00;;;19.80